createdAt,value
2019-03-08T00:00:23.197Z,78.99
2019-03-08T00:02:54.232Z,79.04
2019-03-08T00:05:25.104Z,79.69
2019-03-08T00:07:56.020Z,80.66
2019-03-08T00:10:26.925Z,80.70
2019-03-08T00:12:57.828Z,80.96
2019-03-08T00:15:28.715Z,81.11
2019-03-08T00:18:03.498Z,80.32
2019-03-08T00:20:33.345Z,80.44
2019-03-08T00:23:04.406Z,80.22
2019-03-08T00:25:35.294Z,79.82
2019-03-08T00:28:06.195Z,79.49
2019-03-08T00:30:37.081Z,79.49
2019-03-08T00:33:08.018Z,79.23
2019-03-08T00:35:38.894Z,78.94
2019-03-08T00:38:09.811Z,78.85
2019-03-08T00:40:40.711Z,78.76
2019-03-08T00:43:11.603Z,78.69
2019-03-08T00:45:42.490Z,78.46
2019-03-08T00:48:13.442Z,78.44
2019-03-08T00:50:44.330Z,78.22
2019-03-08T00:53:15.812Z,78.05
2019-03-08T00:55:46.934Z,77.81
2019-03-08T00:58:19.461Z,77.78
2019-03-08T01:00:50.384Z,77.72
2019-03-08T01:03:21.344Z,77.55
2019-03-08T01:05:52.295Z,77.57
2019-03-08T01:08:24.067Z,77.50
2019-03-08T01:10:54.946Z,77.25
2019-03-08T01:13:25.851Z,77.07
2019-03-08T01:15:56.748Z,76.96
2019-03-08T01:18:28.864Z,76.91
2019-03-08T01:20:59.868Z,76.82
2019-03-08T01:23:31.096Z,76.64
2019-03-08T01:26:02.131Z,76.54
2019-03-08T01:28:34.296Z,75.92
2019-03-08T01:31:05.512Z,75.70
2019-03-08T01:33:38.395Z,75.57
2019-03-08T01:36:09.408Z,75.37
2019-03-08T01:38:40.658Z,75.04
2019-03-08T01:41:12.026Z,74.69
2019-03-08T01:43:43.156Z,74.34
2019-03-08T01:46:14.432Z,73.99
2019-03-08T01:48:45.753Z,74.01
2019-03-08T01:51:16.971Z,73.92
2019-03-08T01:53:47.908Z,73.81
2019-03-08T01:56:20.268Z,73.50
2019-03-08T01:58:51.215Z,73.30
2019-03-08T02:01:22.081Z,73.19
2019-03-08T02:03:53.809Z,73.18
2019-03-08T02:06:24.759Z,73.00
2019-03-08T02:08:55.671Z,72.92
2019-03-08T02:11:26.558Z,72.85
2019-03-08T02:13:57.475Z,72.56
2019-03-08T02:16:28.356Z,72.49
2019-03-08T02:19:00.381Z,72.44
2019-03-08T02:21:31.259Z,72.17
2019-03-08T02:24:02.177Z,72.05
2019-03-08T02:26:33.051Z,71.86
2019-03-08T02:29:03.971Z,71.68
2019-03-08T02:31:35.231Z,71.71
2019-03-08T02:34:06.185Z,71.48
2019-03-08T02:36:37.071Z,71.47
2019-03-08T02:39:08.884Z,71.29
2019-03-08T02:41:39.758Z,71.24
2019-03-08T02:44:10.835Z,71.25
2019-03-08T02:46:41.721Z,71.14
2019-03-08T02:49:13.489Z,71.22
2019-03-08T02:51:44.387Z,71.18
2019-03-08T02:54:17.641Z,71.22
2019-03-08T02:56:48.527Z,71.03
2019-03-08T02:59:20.233Z,70.93
2019-03-08T03:01:51.121Z,70.83
2019-03-08T03:04:22.074Z,70.80
2019-03-08T03:06:52.949Z,70.65
2019-03-08T03:09:23.861Z,70.58
2019-03-08T03:11:54.739Z,70.67
2019-03-08T03:14:25.648Z,70.53
2019-03-08T03:16:56.524Z,70.51
2019-03-08T03:19:28.249Z,70.51
2019-03-08T03:21:59.130Z,70.35
2019-03-08T03:24:30.043Z,70.27
2019-03-08T03:27:00.921Z,70.29
2019-03-08T03:29:31.820Z,70.23
2019-03-08T03:32:02.706Z,70.35
2019-03-08T03:34:33.791Z,70.17
2019-03-08T03:37:04.666Z,70.24
2019-03-08T03:39:35.571Z,70.11
2019-03-08T03:42:06.454Z,69.96
2019-03-08T03:44:37.380Z,69.89
2019-03-08T03:47:08.258Z,69.91
2019-03-08T03:49:39.198Z,69.92
2019-03-08T03:52:10.072Z,69.86
2019-03-08T03:54:40.991Z,69.69
2019-03-08T03:57:11.871Z,69.64
2019-03-08T03:59:44.382Z,69.59
2019-03-08T04:02:15.351Z,69.56
2019-03-08T04:04:47.147Z,69.60
2019-03-08T04:07:21.844Z,69.68
2019-03-08T04:09:52.838Z,69.66
2019-03-08T04:12:23.785Z,69.64
2019-03-08T04:14:55.159Z,69.75
2019-03-08T04:17:29.582Z,69.65
2019-03-08T04:20:00.727Z,69.88
2019-03-08T04:22:31.662Z,69.83
2019-03-08T04:25:02.607Z,69.67
2019-03-08T04:27:33.545Z,69.68
2019-03-08T04:30:06.861Z,69.80
2019-03-08T04:32:37.748Z,69.74
2019-03-08T04:35:08.714Z,70.05
2019-03-08T04:37:39.601Z,70.09
2019-03-08T04:40:12.333Z,69.91
2019-03-08T04:42:43.193Z,70.05
2019-03-08T04:45:16.418Z,70.25
2019-03-08T04:47:47.300Z,70.08
2019-03-08T04:50:18.233Z,70.01
2019-03-08T04:52:49.103Z,70.17
2019-03-08T04:55:22.156Z,70.22
2019-03-08T04:57:53.201Z,70.00
2019-03-08T05:00:25.718Z,69.92
2019-03-08T05:02:56.590Z,69.84
2019-03-08T05:05:28.337Z,69.90
2019-03-08T05:07:59.263Z,69.88
2019-03-08T05:10:30.186Z,69.72
2019-03-08T05:13:01.086Z,69.69
2019-03-08T05:15:32.009Z,69.73
2019-03-08T05:18:02.932Z,69.75
2019-03-08T05:20:35.513Z,69.77
2019-03-08T05:23:06.406Z,69.57
2019-03-08T05:25:37.334Z,69.66
2019-03-08T05:28:08.221Z,69.70
2019-03-08T05:30:39.140Z,69.62
2019-03-08T05:33:10.016Z,69.57
2019-03-08T05:35:42.599Z,69.49
2019-03-08T05:38:13.487Z,69.27
2019-03-08T05:40:44.416Z,69.27
2019-03-08T05:43:15.317Z,69.20
2019-03-08T05:45:46.235Z,69.03
2019-03-08T05:48:21.393Z,68.77
2019-03-08T05:50:53.148Z,68.44
2019-03-08T05:53:24.039Z,68.21
2019-03-08T05:55:54.939Z,67.68
2019-03-08T05:58:25.828Z,67.19
2019-03-08T06:00:57.711Z,66.73
2019-03-08T06:03:28.590Z,66.18
2019-03-08T06:06:00.371Z,65.69
2019-03-08T06:08:31.251Z,64.98
2019-03-08T06:11:02.155Z,64.65
2019-03-08T06:13:33.048Z,64.32
2019-03-08T06:16:03.974Z,63.79
2019-03-08T06:18:34.849Z,63.31
2019-03-08T06:21:06.776Z,62.56
2019-03-08T06:23:37.658Z,62.19
2019-03-08T06:26:20.275Z,61.82
2019-03-08T06:28:51.164Z,61.47
2019-03-08T06:31:22.090Z,61.18
2019-03-08T06:33:52.967Z,60.70
2019-03-08T06:36:24.905Z,60.10
2019-03-08T06:38:55.810Z,59.77
2019-03-08T06:41:26.725Z,59.63
2019-03-08T06:43:57.615Z,58.85
2019-03-08T06:46:28.540Z,58.84
2019-03-08T06:48:59.517Z,58.59
2019-03-08T06:51:30.459Z,58.22
2019-03-08T06:54:01.355Z,57.98
2019-03-08T06:56:32.267Z,57.83
2019-03-08T06:59:04.793Z,57.67
2019-03-08T07:01:37.587Z,57.37
2019-03-08T07:04:08.488Z,57.11
2019-03-08T07:06:39.513Z,56.87
2019-03-08T07:09:10.408Z,56.65
2019-03-08T07:11:41.368Z,56.52
2019-03-08T07:14:12.514Z,56.31
2019-03-08T07:16:43.435Z,55.84
2019-03-08T07:19:14.321Z,55.74
2019-03-08T07:21:47.091Z,55.95
2019-03-08T07:24:19.625Z,55.60
2019-03-08T07:26:52.189Z,55.19
2019-03-08T07:29:30.838Z,54.92
2019-03-08T07:32:14.350Z,54.68
2019-03-08T07:34:48.924Z,54.47
2019-03-08T07:37:21.641Z,54.18
2019-03-08T07:39:56.881Z,53.96
2019-03-08T07:42:41.679Z,53.76
2019-03-08T07:45:17.219Z,53.52
2019-03-08T07:47:52.810Z,53.20
2019-03-08T07:50:34.251Z,53.05
2019-03-08T07:53:07.035Z,53.27
2019-03-08T07:55:39.562Z,53.18
2019-03-08T07:58:15.027Z,52.78
2019-03-08T08:00:53.675Z,53.11
2019-03-08T08:03:35.134Z,53.37
2019-03-08T08:06:19.521Z,53.65
2019-03-08T08:08:59.105Z,53.70
2019-03-08T08:11:40.520Z,53.94
2019-03-08T08:14:19.032Z,55.15
2019-03-08T08:16:57.550Z,56.07
2019-03-08T08:19:30.121Z,57.25
2019-03-08T08:22:05.616Z,57.73
2019-03-08T08:24:41.206Z,58.01
2019-03-08T08:27:13.738Z,59.29
2019-03-08T08:30:04.617Z,60.20
2019-03-08T08:32:49.288Z,61.29
2019-03-08T08:35:31.162Z,61.35
2019-03-08T08:38:06.847Z,62.01
2019-03-08T08:40:52.568Z,62.89
2019-03-08T08:43:25.101Z,64.04
2019-03-08T08:45:57.667Z,65.32
2019-03-08T08:48:39.059Z,66.76
2019-03-08T08:51:11.631Z,68.23
2019-03-08T08:53:53.159Z,69.11
2019-03-08T08:56:44.558Z,69.88
2019-03-08T08:59:20.343Z,69.99
2019-03-08T09:01:58.875Z,71.10
2019-03-08T09:04:32.179Z,70.78
2019-03-08T09:07:21.173Z,71.82
2019-03-08T09:09:56.401Z,71.99
2019-03-08T09:12:41.544Z,72.72
2019-03-08T09:15:23.766Z,73.29
2019-03-08T09:17:59.343Z,73.35
2019-03-08T09:20:49.980Z,73.64
2019-03-08T09:23:25.638Z,73.90
2019-03-08T09:26:07.382Z,74.30
2019-03-08T09:28:48.977Z,74.22
2019-03-08T09:31:27.532Z,74.43
2019-03-08T09:34:02.786Z,74.83
2019-03-08T09:36:52.564Z,74.46
2019-03-08T09:39:25.151Z,74.30
2019-03-08T09:42:00.415Z,73.77
2019-03-08T09:44:39.059Z,73.40
2019-03-08T09:47:23.518Z,73.15
2019-03-08T09:49:59.389Z,72.69
2019-03-08T09:52:46.961Z,72.22
2019-03-08T09:55:31.786Z,71.97
2019-03-08T09:58:04.309Z,71.61
2019-03-08T10:00:43.096Z,71.35
2019-03-08T10:03:15.909Z,70.99
2019-03-08T10:05:49.475Z,70.57
2019-03-08T10:08:22.022Z,69.89
2019-03-08T10:10:57.292Z,69.47
2019-03-08T10:13:32.554Z,69.42
2019-03-08T10:16:05.967Z,68.99
2019-03-08T10:18:53.730Z,69.74
2019-03-08T10:21:26.313Z,69.74
2019-03-08T10:23:58.844Z,70.52
2019-03-08T10:26:34.630Z,70.44
2019-03-08T10:29:07.172Z,70.52
2019-03-08T10:31:49.321Z,70.73
2019-03-08T10:34:37.064Z,70.64
2019-03-08T10:37:21.761Z,70.46
2019-03-08T10:40:00.400Z,70.17
2019-03-08T10:42:52.277Z,69.66
2019-03-08T10:45:27.620Z,69.38
2019-03-08T10:48:07.003Z,68.81
2019-03-08T10:50:45.586Z,67.96
2019-03-08T10:53:18.149Z,67.55
2019-03-08T10:55:50.959Z,67.35
2019-03-08T10:58:32.693Z,66.79
2019-03-08T11:01:16.978Z,66.01
2019-03-08T11:04:06.092Z,65.96
2019-03-08T11:06:56.044Z,65.90
2019-03-08T11:09:31.102Z,65.19
2019-03-08T11:12:12.353Z,65.02
2019-03-08T11:14:57.136Z,64.71
2019-03-08T11:17:38.702Z,64.31
2019-03-08T11:20:12.401Z,64.23
2019-03-08T11:22:59.976Z,64.13
2019-03-08T11:25:49.130Z,64.23
2019-03-08T11:28:21.777Z,64.53
2019-03-08T11:31:03.583Z,64.46
2019-03-08T11:33:51.556Z,64.73
2019-03-08T11:36:24.947Z,65.15
2019-03-08T11:39:03.218Z,64.90
2019-03-08T11:41:52.182Z,65.15
2019-03-08T11:44:30.445Z,64.76
2019-03-08T11:47:09.128Z,64.88
2019-03-08T11:49:50.038Z,65.07
2019-03-08T11:52:33.869Z,65.17
2019-03-08T11:55:11.160Z,65.15
2019-03-08T11:57:49.598Z,65.79
2019-03-08T12:00:38.557Z,66.19
2019-03-08T12:03:11.098Z,66.70
2019-03-08T12:05:52.382Z,66.80
2019-03-08T12:08:25.867Z,67.36
2019-03-08T12:11:23.015Z,67.66
2019-03-08T12:13:55.598Z,67.42
2019-03-08T12:16:28.118Z,67.78
2019-03-08T12:19:09.719Z,67.76
2019-03-08T12:21:44.944Z,68.43
2019-03-08T12:24:22.517Z,69.03
2019-03-08T12:27:04.752Z,70.09
2019-03-08T12:29:40.444Z,70.30
2019-03-08T12:32:13.020Z,71.66
2019-03-08T12:34:45.654Z,72.91
2019-03-08T12:37:18.262Z,72.81
2019-03-08T12:39:57.541Z,72.67
2019-03-08T12:42:34.417Z,72.47
2019-03-08T12:45:09.919Z,72.71
2019-03-08T12:47:45.154Z,72.88
2019-03-08T12:50:23.675Z,73.56
2019-03-08T12:53:08.893Z,73.88
2019-03-08T12:55:56.863Z,73.65
2019-03-08T12:58:45.870Z,73.51
2019-03-08T13:01:21.170Z,72.56
2019-03-08T13:04:10.124Z,71.85
2019-03-08T13:06:42.683Z,71.04
2019-03-08T13:09:19.453Z,70.49
2019-03-08T13:11:50.387Z,69.62
2019-03-08T13:14:21.293Z,68.98
2019-03-08T13:16:53.093Z,68.20
2019-03-08T13:19:23.992Z,67.25
2019-03-08T13:21:56.816Z,66.71
2019-03-08T13:24:27.703Z,66.33
2019-03-08T13:26:58.662Z,66.08
2019-03-08T13:29:30.815Z,65.55
2019-03-08T13:32:01.735Z,64.98
2019-03-08T13:34:32.808Z,64.24
2019-03-08T13:37:05.514Z,63.22
2019-03-08T13:39:36.403Z,62.67
2019-03-08T13:42:08.221Z,62.31
2019-03-08T13:44:39.117Z,62.07
2019-03-08T13:47:10.029Z,61.51
2019-03-08T13:49:40.917Z,61.10
2019-03-08T13:52:11.842Z,60.63
2019-03-08T13:54:42.753Z,59.82
2019-03-08T13:57:14.586Z,59.86
2019-03-08T13:59:45.502Z,59.74
2019-03-08T14:02:16.426Z,59.29
2019-03-08T14:04:47.310Z,59.32
2019-03-08T14:07:18.224Z,59.19
2019-03-08T14:09:49.894Z,58.88
2019-03-08T14:12:21.738Z,58.74
2019-03-08T14:14:52.635Z,58.74
2019-03-08T14:17:23.548Z,57.93
2019-03-08T14:19:54.433Z,57.94
2019-03-08T14:22:25.348Z,57.73
2019-03-08T14:24:56.248Z,57.41
2019-03-08T14:27:28.082Z,57.23
2019-03-08T14:30:00.327Z,57.17
2019-03-08T14:32:31.731Z,57.05
2019-03-08T14:35:02.911Z,57.03
2019-03-08T14:37:33.951Z,56.90
2019-03-08T14:40:09.702Z,56.85
2019-03-08T14:42:48.031Z,56.29
2019-03-08T14:45:22.220Z,56.65
2019-03-08T14:47:53.122Z,56.70
2019-03-08T14:50:24.016Z,56.34
2019-03-08T14:52:55.777Z,56.29
2019-03-08T14:55:27.703Z,56.16
2019-03-08T14:57:59.110Z,56.06
2019-03-08T15:00:31.477Z,55.69
2019-03-08T15:03:02.430Z,55.55
2019-03-08T15:05:33.321Z,55.30
2019-03-08T15:08:04.307Z,55.37
2019-03-08T15:10:39.625Z,55.45
2019-03-08T15:13:10.385Z,55.04
2019-03-08T15:15:41.273Z,54.90
2019-03-08T15:18:12.193Z,54.88
2019-03-08T15:20:43.080Z,55.00
2019-03-08T15:23:17.120Z,55.24
2019-03-08T15:25:49.030Z,55.30
2019-03-08T15:28:20.110Z,55.37
2019-03-08T15:30:50.992Z,55.36
2019-03-08T15:33:21.914Z,55.42
2019-03-08T15:35:52.934Z,55.44
2019-03-08T15:38:23.967Z,55.51
2019-03-08T15:40:54.885Z,55.46
2019-03-08T15:43:26.662Z,55.33
2019-03-08T15:45:57.567Z,55.33
2019-03-08T15:48:29.399Z,55.46
2019-03-08T15:51:00.349Z,55.29
2019-03-08T15:53:31.510Z,55.11
2019-03-08T15:56:02.426Z,55.28
2019-03-08T15:58:34.257Z,55.02
2019-03-08T16:01:07.980Z,55.23
2019-03-08T16:03:38.570Z,55.37
2019-03-08T16:06:09.500Z,55.42
2019-03-08T16:08:40.850Z,55.58
2019-03-08T16:11:12.932Z,55.47
2019-03-08T16:13:44.923Z,55.70
2019-03-08T16:16:15.956Z,55.72
2019-03-08T16:18:48.218Z,55.68
2019-03-08T16:21:19.235Z,55.75
2019-03-08T16:23:51.774Z,55.61
2019-03-08T16:26:25.263Z,55.70
2019-03-08T16:28:56.378Z,55.86
2019-03-08T16:31:34.473Z,56.05
2019-03-08T16:34:07.231Z,55.77
2019-03-08T16:36:39.527Z,55.95
2019-03-08T16:39:21.207Z,55.96
2019-03-08T16:42:09.810Z,56.10
2019-03-08T16:44:54.957Z,56.37
2019-03-08T16:47:33.140Z,56.44
2019-03-08T16:50:14.084Z,56.70
2019-03-08T16:52:51.901Z,56.53
2019-03-08T16:55:41.510Z,56.80
2019-03-08T16:58:31.362Z,56.91
2019-03-08T17:01:05.263Z,56.88
2019-03-08T17:03:40.751Z,57.06
2019-03-08T17:06:27.162Z,56.94
2019-03-08T17:09:12.138Z,57.17
2019-03-08T17:11:52.364Z,57.07
2019-03-08T17:14:27.932Z,57.04
2019-03-08T17:17:02.135Z,57.20
2019-03-08T17:19:41.052Z,57.49
2019-03-08T17:22:16.697Z,57.49
2019-03-08T17:24:49.249Z,57.61
2019-03-08T17:27:21.835Z,57.51
2019-03-08T17:29:54.377Z,57.67
2019-03-08T17:32:33.673Z,57.60
2019-03-08T17:35:24.642Z,57.65
2019-03-08T17:37:58.066Z,57.60
2019-03-08T17:40:47.071Z,57.59
2019-03-08T17:43:36.064Z,57.44
2019-03-08T17:46:14.789Z,57.48
2019-03-08T17:48:47.402Z,57.59
2019-03-08T17:51:28.959Z,57.60
2019-03-08T17:54:10.782Z,57.68
2019-03-08T17:56:59.487Z,57.74
2019-03-08T17:59:48.186Z,57.81
2019-03-08T18:02:23.533Z,57.97
2019-03-08T18:05:15.767Z,58.00
2019-03-08T18:08:00.343Z,57.99
2019-03-08T18:10:45.320Z,58.13
2019-03-08T18:13:18.745Z,58.45
2019-03-08T18:15:51.313Z,58.54
2019-03-08T18:18:42.111Z,58.61
2019-03-08T18:21:21.360Z,58.68
2019-03-08T18:23:56.851Z,58.91
2019-03-08T18:26:45.482Z,59.17
2019-03-08T18:29:27.002Z,59.36
2019-03-08T18:32:05.662Z,59.42
2019-03-08T18:34:44.315Z,59.60
2019-03-08T18:37:18.588Z,59.76
2019-03-08T18:39:57.332Z,59.78
2019-03-08T18:42:32.945Z,59.85
2019-03-08T18:45:23.380Z,59.76
2019-03-08T18:48:02.356Z,59.69
2019-03-08T18:50:34.905Z,59.75
2019-03-08T18:53:14.255Z,59.69
2019-03-08T18:55:47.179Z,59.56
2019-03-08T18:58:36.282Z,59.75
2019-03-08T19:01:17.741Z,59.68
2019-03-08T19:04:02.477Z,59.74
2019-03-08T19:06:40.889Z,59.87
2019-03-08T19:09:29.586Z,59.93
2019-03-08T19:12:14.081Z,60.00
2019-03-08T19:14:59.369Z,60.10
2019-03-08T19:17:34.850Z,60.16
2019-03-08T19:20:19.476Z,60.18
2019-03-08T19:22:52.066Z,60.47
2019-03-08T19:25:25.564Z,60.50
2019-03-08T19:28:08.767Z,60.79
2019-03-08T19:30:59.045Z,61.06
2019-03-08T19:33:50.347Z,61.21
2019-03-08T19:36:39.241Z,61.40
2019-03-08T19:39:11.873Z,61.77
2019-03-08T19:41:53.463Z,62.02
2019-03-08T19:44:44.737Z,62.31
2019-03-08T19:47:17.314Z,62.58
2019-03-08T19:49:55.486Z,62.82
2019-03-08T19:52:28.062Z,62.97
2019-03-08T19:55:15.860Z,63.08
2019-03-08T19:58:08.678Z,63.14
2019-03-08T20:00:44.186Z,63.28
2019-03-08T20:03:31.734Z,63.09
2019-03-08T20:06:07.349Z,63.25
2019-03-08T20:08:39.941Z,63.28
2019-03-08T20:11:24.485Z,63.43
2019-03-08T20:14:00.943Z,63.50
2019-03-08T20:16:37.045Z,63.39
2019-03-08T20:19:33.082Z,63.43
2019-03-08T20:22:06.974Z,63.29
2019-03-08T20:24:42.273Z,63.14
2019-03-08T20:27:19.358Z,63.12
2019-03-08T20:30:02.175Z,63.21
2019-03-08T20:32:34.697Z,63.11
2019-03-08T20:35:24.389Z,63.08
2019-03-08T20:37:56.921Z,63.04
2019-03-08T20:40:45.899Z,62.82
2019-03-08T20:43:21.539Z,62.85
2019-03-08T20:46:04.176Z,62.79
2019-03-08T20:48:35.059Z,62.71
2019-03-08T20:51:05.984Z,62.62
2019-03-08T20:53:36.895Z,62.42
2019-03-08T20:56:07.832Z,62.47
2019-03-08T20:58:38.722Z,62.41
2019-03-08T21:01:09.688Z,62.30
2019-03-08T21:03:40.966Z,62.28
2019-03-08T21:06:11.875Z,62.39
2019-03-08T21:08:42.766Z,62.18
2019-03-08T21:11:13.698Z,62.21
2019-03-08T21:13:44.591Z,62.19
2019-03-08T21:16:16.441Z,62.25
2019-03-08T21:18:47.345Z,62.25
2019-03-08T21:21:18.271Z,62.33
2019-03-08T21:23:49.165Z,62.30
2019-03-08T21:26:20.086Z,62.26
2019-03-08T21:28:50.980Z,62.33
2019-03-08T21:31:22.743Z,62.46
2019-03-08T21:33:53.632Z,62.21
2019-03-08T21:36:24.548Z,62.24
2019-03-08T21:38:56.490Z,62.22
2019-03-08T21:41:27.409Z,62.30
2019-03-08T21:43:58.308Z,62.39
2019-03-08T21:46:33.106Z,62.42
2019-03-08T21:49:04.002Z,62.60
2019-03-08T21:51:34.919Z,62.71
2019-03-08T21:54:05.827Z,63.08
2019-03-08T21:56:36.759Z,63.43
2019-03-08T21:59:07.649Z,63.38
2019-03-08T22:01:39.551Z,63.38
2019-03-08T22:04:12.082Z,63.54
2019-03-08T22:06:43.005Z,63.62
2019-03-08T22:09:24.366Z,63.79
2019-03-08T22:11:55.288Z,63.68
2019-03-08T22:14:26.180Z,63.82
2019-03-08T22:16:58.283Z,63.76
2019-03-08T22:19:29.181Z,63.84
2019-03-08T22:22:00.268Z,63.84
2019-03-08T22:24:31.169Z,63.86
2019-03-08T22:27:02.090Z,64.13
2019-03-08T22:29:40.394Z,64.36
2019-03-08T22:32:12.416Z,64.39
2019-03-08T22:34:43.299Z,64.41
2019-03-08T22:37:14.234Z,64.35
2019-03-08T22:39:45.125Z,64.71
2019-03-08T22:42:16.039Z,64.64
2019-03-08T22:44:47.002Z,64.52
2019-03-08T22:47:17.933Z,64.81
2019-03-08T22:49:54.525Z,64.59
2019-03-08T22:52:24.604Z,64.78
2019-03-08T22:54:58.335Z,64.88
2019-03-08T22:57:29.245Z,64.97
2019-03-08T23:00:00.315Z,64.94
2019-03-08T23:02:31.360Z,65.13
2019-03-08T23:05:02.266Z,65.07
2019-03-08T23:07:33.252Z,65.15
2019-03-08T23:10:07.158Z,65.09
2019-03-08T23:12:38.075Z,65.08
2019-03-08T23:15:09.573Z,64.96
2019-03-08T23:17:40.526Z,64.85
2019-03-08T23:20:12.195Z,64.83
2019-03-08T23:22:43.173Z,64.71
2019-03-08T23:25:14.068Z,64.84
2019-03-08T23:27:46.629Z,64.71
2019-03-08T23:30:19.190Z,64.60
2019-03-08T23:32:51.134Z,64.44
2019-03-08T23:35:22.030Z,64.48
2019-03-08T23:37:52.935Z,64.26
2019-03-08T23:40:23.830Z,64.34
2019-03-08T23:42:54.744Z,64.16
2019-03-08T23:45:25.644Z,64.10
2019-03-08T23:47:56.593Z,64.10
2019-03-08T23:50:27.568Z,64.19
2019-03-08T23:52:59.631Z,64.17
2019-03-08T23:55:30.454Z,64.04
2019-03-08T23:58:01.369Z,64.22
